sensor_id;sensor_type;location;lat;lon;timestamp;temperature;humidity
72206;DHT22;60111;48.286;7.812;2022-11-15T00:01:19;12.70;99.90
72206;DHT22;60111;48.286;7.812;2022-11-15T00:03:53;12.70;99.90
72206;DHT22;60111;48.286;7.812;2022-11-15T00:06:25;12.60;99.90
72206;DHT22;60111;48.286;7.812;2022-11-15T00:08:59;12.60;99.90
72206;DHT22;60111;48.286;7.812;2022-11-15T00:11:31;12.70;99.90
72206;DHT22;60111;48.286;7.812;2022-11-15T00:14:04;12.80;99.90
72206;DHT22;60111;48.286;7.812;2022-11-15T00:16:37;12.90;99.90
72206;DHT22;60111;48.286;7.812;2022-11-15T00:19:09;13.00;99.90
72206;DHT22;60111;48.286;7.812;2022-11-15T00:21:42;13.00;99.90
72206;DHT22;60111;48.286;7.812;2022-11-15T00:24:14;13.10;99.90
72206;DHT22;60111;48.286;7.812;2022-11-15T00:26:47;13.30;99.90
72206;DHT22;60111;48.286;7.812;2022-11-15T00:29:20;13.20;99.90
72206;DHT22;60111;48.286;7.812;2022-11-15T00:31:52;13.10;99.90
72206;DHT22;60111;48.286;7.812;2022-11-15T00:34:25;13.00;99.90
72206;DHT22;60111;48.286;7.812;2022-11-15T00:37:00;13.00;99.90
72206;DHT22;60111;48.286;7.812;2022-11-15T00:39:33;12.90;99.90
72206;DHT22;60111;48.286;7.812;2022-11-15T00:42:05;12.80;99.90
72206;DHT22;60111;48.286;7.812;2022-11-15T00:44:38;12.70;99.90
72206;DHT22;60111;48.286;7.812;2022-11-15T00:47:11;12.70;99.90
72206;DHT22;60111;48.286;7.812;2022-11-15T00:49:43;12.70;99.90
72206;DHT22;60111;48.286;7.812;2022-11-15T00:52:16;12.70;99.90
72206;DHT22;60111;48.286;7.812;2022-11-15T00:54:48;12.70;99.90
72206;DHT22;60111;48.286;7.812;2022-11-15T00:57:21;12.70;99.90
72206;DHT22;60111;48.286;7.812;2022-11-15T00:59:55;12.70;99.90
72206;DHT22;60111;48.286;7.812;2022-11-15T01:02:28;12.70;99.90
72206;DHT22;60111;48.286;7.812;2022-11-15T01:05:00;12.70;99.90
72206;DHT22;60111;48.286;7.812;2022-11-15T01:07:33;12.70;99.90
72206;DHT22;60111;48.286;7.812;2022-11-15T01:10:06;12.90;99.90
72206;DHT22;60111;48.286;7.812;2022-11-15T01:12:39;12.90;99.90
72206;DHT22;60111;48.286;7.812;2022-11-15T01:15:11;13.00;99.90
72206;DHT22;60111;48.286;7.812;2022-11-15T01:17:44;13.00;99.90
72206;DHT22;60111;48.286;7.812;2022-11-15T01:20:17;13.00;99.90
72206;DHT22;60111;48.286;7.812;2022-11-15T01:22:50;12.80;99.90
72206;DHT22;60111;48.286;7.812;2022-11-15T01:25:23;12.70;99.90
72206;DHT22;60111;48.286;7.812;2022-11-15T01:27:56;12.70;99.90
72206;DHT22;60111;48.286;7.812;2022-11-15T01:30:28;12.60;99.90
72206;DHT22;60111;48.286;7.812;2022-11-15T01:33:01;12.60;99.90
72206;DHT22;60111;48.286;7.812;2022-11-15T01:35:38;12.70;99.90
72206;DHT22;60111;48.286;7.812;2022-11-15T01:38:09;12.80;99.90
72206;DHT22;60111;48.286;7.812;2022-11-15T01:40:42;12.60;99.90
72206;DHT22;60111;48.286;7.812;2022-11-15T01:43:30;12.50;99.90
72206;DHT22;60111;48.286;7.812;2022-11-15T01:46:06;12.40;99.90
72206;DHT22;60111;48.286;7.812;2022-11-15T01:48:38;12.30;99.90
72206;DHT22;60111;48.286;7.812;2022-11-15T01:51:12;12.20;99.90
72206;DHT22;60111;48.286;7.812;2022-11-15T01:53:49;12.10;99.90
72206;DHT22;60111;48.286;7.812;2022-11-15T01:56:25;12.10;99.90
72206;DHT22;60111;48.286;7.812;2022-11-15T01:59:00;12.00;99.90
72206;DHT22;60111;48.286;7.812;2022-11-15T02:01:34;11.90;99.90
72206;DHT22;60111;48.286;7.812;2022-11-15T02:06:49;11.80;99.90
72206;DHT22;60111;48.286;7.812;2022-11-15T02:09:22;11.70;99.90
72206;DHT22;60111;48.286;7.812;2022-11-15T02:11:55;11.70;99.90
72206;DHT22;60111;48.286;7.812;2022-11-15T02:14:29;11.70;99.90
72206;DHT22;60111;48.286;7.812;2022-11-15T02:17:08;11.70;99.90
72206;DHT22;60111;48.286;7.812;2022-11-15T02:25:39;11.80;99.90
72206;DHT22;60111;48.286;7.812;2022-11-15T02:40:13;11.60;99.90
72206;DHT22;60111;48.286;7.812;2022-11-15T02:42:07;11.50;99.90
72206;DHT22;60111;48.286;7.812;2022-11-15T02:44:43;11.50;99.90
72206;DHT22;60111;48.286;7.812;2022-11-15T02:47:17;11.50;99.90
72206;DHT22;60111;48.286;7.812;2022-11-15T02:49:52;11.50;99.90
72206;DHT22;60111;48.286;7.812;2022-11-15T02:52:25;11.50;99.90
72206;DHT22;60111;48.286;7.812;2022-11-15T02:54:59;11.50;99.90
72206;DHT22;60111;48.286;7.812;2022-11-15T02:57:51;11.50;99.90
72206;DHT22;60111;48.286;7.812;2022-11-15T03:00:19;11.50;99.90
72206;DHT22;60111;48.286;7.812;2022-11-15T03:11:18;11.50;99.90
72206;DHT22;60111;48.286;7.812;2022-11-15T03:14:03;11.50;99.90
72206;DHT22;60111;48.286;7.812;2022-11-15T03:16:42;11.50;99.90
72206;DHT22;60111;48.286;7.812;2022-11-15T03:22:00;11.40;99.90
72206;DHT22;60111;48.286;7.812;2022-11-15T03:24:36;11.30;99.90
72206;DHT22;60111;48.286;7.812;2022-11-15T03:27:12;11.30;99.90
72206;DHT22;60111;48.286;7.812;2022-11-15T03:29:48;11.30;99.90
72206;DHT22;60111;48.286;7.812;2022-11-15T03:32:23;11.20;99.90
72206;DHT22;60111;48.286;7.812;2022-11-15T03:35:05;11.20;99.90
72206;DHT22;60111;48.286;7.812;2022-11-15T03:40:23;11.10;99.90
72206;DHT22;60111;48.286;7.812;2022-11-15T03:43:01;11.10;99.90
72206;DHT22;60111;48.286;7.812;2022-11-15T03:45:50;11.10;99.90
72206;DHT22;60111;48.286;7.812;2022-11-15T03:48:25;11.20;99.90
72206;DHT22;60111;48.286;7.812;2022-11-15T03:50:54;11.20;99.90
72206;DHT22;60111;48.286;7.812;2022-11-15T03:53:27;11.30;99.90
72206;DHT22;60111;48.286;7.812;2022-11-15T03:56:02;11.40;99.90
72206;DHT22;60111;48.286;7.812;2022-11-15T03:58:34;11.50;99.90
72206;DHT22;60111;48.286;7.812;2022-11-15T04:01:07;11.60;99.90
72206;DHT22;60111;48.286;7.812;2022-11-15T04:03:40;11.70;99.90
72206;DHT22;60111;48.286;7.812;2022-11-15T04:06:14;11.80;99.90
72206;DHT22;60111;48.286;7.812;2022-11-15T04:08:46;11.80;99.90
72206;DHT22;60111;48.286;7.812;2022-11-15T04:11:19;11.90;99.90
72206;DHT22;60111;48.286;7.812;2022-11-15T04:13:52;11.90;99.90
72206;DHT22;60111;48.286;7.812;2022-11-15T04:16:24;11.90;99.90
72206;DHT22;60111;48.286;7.812;2022-11-15T04:18:57;11.80;99.90
72206;DHT22;60111;48.286;7.812;2022-11-15T04:21:47;11.90;99.90
72206;DHT22;60111;48.286;7.812;2022-11-15T04:24:38;12.00;99.90
72206;DHT22;60111;48.286;7.812;2022-11-15T04:27:11;12.00;99.90
72206;DHT22;60111;48.286;7.812;2022-11-15T04:29:44;12.10;99.90
72206;DHT22;60111;48.286;7.812;2022-11-15T04:32:17;12.10;99.90
72206;DHT22;60111;48.286;7.812;2022-11-15T04:34:49;12.00;99.90
72206;DHT22;60111;48.286;7.812;2022-11-15T04:37:22;12.00;99.90
72206;DHT22;60111;48.286;7.812;2022-11-15T04:39:55;12.00;99.90
72206;DHT22;60111;48.286;7.812;2022-11-15T04:42:27;11.90;99.90
72206;DHT22;60111;48.286;7.812;2022-11-15T04:45:00;12.10;99.90
72206;DHT22;60111;48.286;7.812;2022-11-15T04:47:32;12.10;99.90
72206;DHT22;60111;48.286;7.812;2022-11-15T04:50:05;12.10;99.90
72206;DHT22;60111;48.286;7.812;2022-11-15T04:52:39;12.20;99.90
72206;DHT22;60111;48.286;7.812;2022-11-15T04:55:13;12.20;99.90
72206;DHT22;60111;48.286;7.812;2022-11-15T04:57:45;12.10;99.90
72206;DHT22;60111;48.286;7.812;2022-11-15T05:00:18;12.10;99.90
72206;DHT22;60111;48.286;7.812;2022-11-15T05:02:51;12.10;99.90
72206;DHT22;60111;48.286;7.812;2022-11-15T05:05:42;12.10;99.90
72206;DHT22;60111;48.286;7.812;2022-11-15T05:08:15;12.20;99.90
72206;DHT22;60111;48.286;7.812;2022-11-15T05:10:48;12.10;99.90
72206;DHT22;60111;48.286;7.812;2022-11-15T05:13:21;12.10;99.90
72206;DHT22;60111;48.286;7.812;2022-11-15T05:15:54;12.10;99.90
72206;DHT22;60111;48.286;7.812;2022-11-15T05:18:27;12.00;99.90
72206;DHT22;60111;48.286;7.812;2022-11-15T05:21:07;12.10;99.90
72206;DHT22;60111;48.286;7.812;2022-11-15T05:23:41;12.20;99.90
72206;DHT22;60111;48.286;7.812;2022-11-15T05:26:15;12.30;99.90
72206;DHT22;60111;48.286;7.812;2022-11-15T05:28:53;12.20;99.90
72206;DHT22;60111;48.286;7.812;2022-11-15T05:31:27;12.10;99.90
72206;DHT22;60111;48.286;7.812;2022-11-15T05:34:01;12.10;99.90
72206;DHT22;60111;48.286;7.812;2022-11-15T05:36:38;12.10;99.90
72206;DHT22;60111;48.286;7.812;2022-11-15T05:39:10;12.20;99.90
72206;DHT22;60111;48.286;7.812;2022-11-15T05:41:50;12.20;99.90
72206;DHT22;60111;48.286;7.812;2022-11-15T05:44:21;12.30;99.90
72206;DHT22;60111;48.286;7.812;2022-11-15T05:50:05;12.30;99.90
72206;DHT22;60111;48.286;7.812;2022-11-15T05:52:38;12.20;99.90
72206;DHT22;60111;48.286;7.812;2022-11-15T05:55:11;12.20;99.90
72206;DHT22;60111;48.286;7.812;2022-11-15T05:57:44;12.20;99.90
72206;DHT22;60111;48.286;7.812;2022-11-15T06:00:17;12.10;99.90
72206;DHT22;60111;48.286;7.812;2022-11-15T06:02:50;12.20;99.90
72206;DHT22;60111;48.286;7.812;2022-11-15T06:05:22;12.20;99.90
72206;DHT22;60111;48.286;7.812;2022-11-15T06:07:58;12.20;99.90
72206;DHT22;60111;48.286;7.812;2022-11-15T06:10:32;12.30;99.90
72206;DHT22;60111;48.286;7.812;2022-11-15T06:13:05;12.20;99.90
72206;DHT22;60111;48.286;7.812;2022-11-15T06:15:37;12.20;99.90
72206;DHT22;60111;48.286;7.812;2022-11-15T06:18:10;12.10;99.90
72206;DHT22;60111;48.286;7.812;2022-11-15T06:20:42;12.20;99.90
72206;DHT22;60111;48.286;7.812;2022-11-15T06:23:15;12.10;99.90
72206;DHT22;60111;48.286;7.812;2022-11-15T06:25:48;12.10;99.90
72206;DHT22;60111;48.286;7.812;2022-11-15T06:28:20;12.10;99.90
72206;DHT22;60111;48.286;7.812;2022-11-15T06:30:53;12.10;99.90
72206;DHT22;60111;48.286;7.812;2022-11-15T06:33:25;12.20;99.90
72206;DHT22;60111;48.286;7.812;2022-11-15T06:36:05;12.30;99.90
72206;DHT22;60111;48.286;7.812;2022-11-15T06:38:39;12.20;99.90
72206;DHT22;60111;48.286;7.812;2022-11-15T06:41:12;12.30;99.90
72206;DHT22;60111;48.286;7.812;2022-11-15T06:43:45;12.20;99.90
72206;DHT22;60111;48.286;7.812;2022-11-15T06:46:18;12.20;99.90
72206;DHT22;60111;48.286;7.812;2022-11-15T06:48:51;12.20;99.90
72206;DHT22;60111;48.286;7.812;2022-11-15T06:51:24;12.10;99.90
72206;DHT22;60111;48.286;7.812;2022-11-15T06:53:57;12.20;99.90
72206;DHT22;60111;48.286;7.812;2022-11-15T06:56:29;12.10;99.90
72206;DHT22;60111;48.286;7.812;2022-11-15T06:59:02;12.20;99.90
72206;DHT22;60111;48.286;7.812;2022-11-15T07:01:35;12.20;99.90
72206;DHT22;60111;48.286;7.812;2022-11-15T07:04:07;12.20;99.90
72206;DHT22;60111;48.286;7.812;2022-11-15T07:06:40;12.20;99.90
72206;DHT22;60111;48.286;7.812;2022-11-15T07:09:12;12.20;99.90
72206;DHT22;60111;48.286;7.812;2022-11-15T07:11:45;12.20;99.90
72206;DHT22;60111;48.286;7.812;2022-11-15T07:14:18;12.20;99.90
72206;DHT22;60111;48.286;7.812;2022-11-15T07:16:50;12.10;99.90
72206;DHT22;60111;48.286;7.812;2022-11-15T07:19:23;12.10;99.90
72206;DHT22;60111;48.286;7.812;2022-11-15T07:21:55;12.20;99.90
72206;DHT22;60111;48.286;7.812;2022-11-15T07:24:28;12.20;99.90
72206;DHT22;60111;48.286;7.812;2022-11-15T07:27:00;12.20;99.90
72206;DHT22;60111;48.286;7.812;2022-11-15T07:29:33;12.10;99.90
72206;DHT22;60111;48.286;7.812;2022-11-15T07:32:06;12.00;99.90
72206;DHT22;60111;48.286;7.812;2022-11-15T07:34:38;11.90;99.90
72206;DHT22;60111;48.286;7.812;2022-11-15T07:37:11;11.90;99.90
72206;DHT22;60111;48.286;7.812;2022-11-15T07:48:53;11.80;99.90
72206;DHT22;60111;48.286;7.812;2022-11-15T07:51:25;11.80;99.90
72206;DHT22;60111;48.286;7.812;2022-11-15T07:53:58;11.70;99.90
72206;DHT22;60111;48.286;7.812;2022-11-15T07:56:30;11.80;99.90
72206;DHT22;60111;48.286;7.812;2022-11-15T07:59:03;11.70;99.90
72206;DHT22;60111;48.286;7.812;2022-11-15T08:01:35;11.70;99.90
72206;DHT22;60111;48.286;7.812;2022-11-15T08:04:10;11.70;99.90
72206;DHT22;60111;48.286;7.812;2022-11-15T08:06:43;11.80;99.90
72206;DHT22;60111;48.286;7.812;2022-11-15T08:09:15;11.80;99.90
72206;DHT22;60111;48.286;7.812;2022-11-15T08:11:48;11.80;99.90
72206;DHT22;60111;48.286;7.812;2022-11-15T08:14:20;11.80;99.90
72206;DHT22;60111;48.286;7.812;2022-11-15T08:16:57;11.80;99.90
72206;DHT22;60111;48.286;7.812;2022-11-15T08:19:30;11.90;99.90
72206;DHT22;60111;48.286;7.812;2022-11-15T08:22:02;11.90;99.90
72206;DHT22;60111;48.286;7.812;2022-11-15T08:24:35;11.90;99.90
72206;DHT22;60111;48.286;7.812;2022-11-15T08:27:07;12.00;99.90
72206;DHT22;60111;48.286;7.812;2022-11-15T08:29:49;12.00;99.90
72206;DHT22;60111;48.286;7.812;2022-11-15T08:32:22;12.20;99.90
72206;DHT22;60111;48.286;7.812;2022-11-15T08:34:55;12.20;99.90
72206;DHT22;60111;48.286;7.812;2022-11-15T08:37:28;12.30;99.90
72206;DHT22;60111;48.286;7.812;2022-11-15T08:40:00;12.30;99.90
72206;DHT22;60111;48.286;7.812;2022-11-15T08:42:33;12.30;99.90
72206;DHT22;60111;48.286;7.812;2022-11-15T08:45:07;12.30;99.90
72206;DHT22;60111;48.286;7.812;2022-11-15T08:47:40;12.40;99.90
72206;DHT22;60111;48.286;7.812;2022-11-15T08:50:12;12.50;99.90
72206;DHT22;60111;48.286;7.812;2022-11-15T08:52:45;12.60;99.90
72206;DHT22;60111;48.286;7.812;2022-11-15T08:55:19;12.60;99.90
72206;DHT22;60111;48.286;7.812;2022-11-15T08:57:52;12.60;99.90
72206;DHT22;60111;48.286;7.812;2022-11-15T09:00:25;12.50;99.90
72206;DHT22;60111;48.286;7.812;2022-11-15T09:02:57;12.50;99.90
72206;DHT22;60111;48.286;7.812;2022-11-15T09:05:30;12.50;99.90
72206;DHT22;60111;48.286;7.812;2022-11-15T09:08:03;12.50;99.90
72206;DHT22;60111;48.286;7.812;2022-11-15T09:10:36;12.50;99.90
72206;DHT22;60111;48.286;7.812;2022-11-15T09:13:09;12.50;99.90
72206;DHT22;60111;48.286;7.812;2022-11-15T09:15:44;12.50;99.90
72206;DHT22;60111;48.286;7.812;2022-11-15T09:18:17;12.50;99.90
72206;DHT22;60111;48.286;7.812;2022-11-15T09:20:49;12.40;99.90
72206;DHT22;60111;48.286;7.812;2022-11-15T09:23:22;12.40;99.90
72206;DHT22;60111;48.286;7.812;2022-11-15T09:25:59;12.30;99.90
72206;DHT22;60111;48.286;7.812;2022-11-15T09:28:33;12.20;99.90
72206;DHT22;60111;48.286;7.812;2022-11-15T09:31:06;12.20;99.90
72206;DHT22;60111;48.286;7.812;2022-11-15T09:33:39;12.30;99.90
72206;DHT22;60111;48.286;7.812;2022-11-15T09:36:12;12.30;99.90
72206;DHT22;60111;48.286;7.812;2022-11-15T09:38:49;12.30;99.90
72206;DHT22;60111;48.286;7.812;2022-11-15T09:44:21;12.40;99.90
72206;DHT22;60111;48.286;7.812;2022-11-15T09:49:32;12.50;99.90
72206;DHT22;60111;48.286;7.812;2022-11-15T09:52:06;12.40;99.90
72206;DHT22;60111;48.286;7.812;2022-11-15T09:54:41;12.50;99.90
72206;DHT22;60111;48.286;7.812;2022-11-15T09:57:16;12.50;99.90
72206;DHT22;60111;48.286;7.812;2022-11-15T10:00:04;12.50;99.90
72206;DHT22;60111;48.286;7.812;2022-11-15T10:05:26;12.50;99.90
72206;DHT22;60111;48.286;7.812;2022-11-15T10:08:12;12.60;99.90
72206;DHT22;60111;48.286;7.812;2022-11-15T10:10:48;12.60;99.90
72206;DHT22;60111;48.286;7.812;2022-11-15T10:13:41;12.70;99.90
72206;DHT22;60111;48.286;7.812;2022-11-15T10:16:41;12.70;99.90
72206;DHT22;60111;48.286;7.812;2022-11-15T10:19:35;12.70;99.90
72206;DHT22;60111;48.286;7.812;2022-11-15T10:22:28;12.80;99.90
72206;DHT22;60111;48.286;7.812;2022-11-15T10:27:46;12.80;99.90
72206;DHT22;60111;48.286;7.812;2022-11-15T10:30:19;12.90;99.90
72206;DHT22;60111;48.286;7.812;2022-11-15T10:32:51;12.90;99.90
72206;DHT22;60111;48.286;7.812;2022-11-15T10:35:29;13.00;99.90
72206;DHT22;60111;48.286;7.812;2022-11-15T10:38:07;13.10;99.90
72206;DHT22;60111;48.286;7.812;2022-11-15T10:40:41;13.10;99.90
72206;DHT22;60111;48.286;7.812;2022-11-15T10:43:19;13.10;99.90
72206;DHT22;60111;48.286;7.812;2022-11-15T10:45:51;13.10;99.90
72206;DHT22;60111;48.286;7.812;2022-11-15T10:48:25;13.10;99.90
72206;DHT22;60111;48.286;7.812;2022-11-15T10:50:58;13.20;99.90
72206;DHT22;60111;48.286;7.812;2022-11-15T10:53:41;13.20;99.90
72206;DHT22;60111;48.286;7.812;2022-11-15T10:56:13;13.30;99.90
72206;DHT22;60111;48.286;7.812;2022-11-15T10:58:53;13.40;99.90
72206;DHT22;60111;48.286;7.812;2022-11-15T11:01:28;13.40;99.90
72206;DHT22;60111;48.286;7.812;2022-11-15T11:04:07;13.40;99.90
72206;DHT22;60111;48.286;7.812;2022-11-15T11:06:51;13.40;99.90
72206;DHT22;60111;48.286;7.812;2022-11-15T11:09:35;13.40;99.90
72206;DHT22;60111;48.286;7.812;2022-11-15T11:12:10;13.40;99.90
72206;DHT22;60111;48.286;7.812;2022-11-15T11:14:43;13.40;99.90
72206;DHT22;60111;48.286;7.812;2022-11-15T11:17:38;13.50;99.90
72206;DHT22;60111;48.286;7.812;2022-11-15T11:26:18;13.70;99.90
72206;DHT22;60111;48.286;7.812;2022-11-15T11:31:42;13.70;99.90
72206;DHT22;60111;48.286;7.812;2022-11-15T11:37:24;13.70;99.90
72206;DHT22;60111;48.286;7.812;2022-11-15T11:40:16;13.70;99.90
72206;DHT22;60111;48.286;7.812;2022-11-15T11:49:15;13.70;99.90
72206;DHT22;60111;48.286;7.812;2022-11-15T11:54:55;13.70;99.90
72206;DHT22;60111;48.286;7.812;2022-11-15T11:57:30;13.70;99.90
72206;DHT22;60111;48.286;7.812;2022-11-15T12:00:21;13.60;99.90
72206;DHT22;60111;48.286;7.812;2022-11-15T12:05:56;13.60;99.90
72206;DHT22;60111;48.286;7.812;2022-11-15T12:08:38;13.60;99.90
72206;DHT22;60111;48.286;7.812;2022-11-15T12:11:28;13.60;99.90
72206;DHT22;60111;48.286;7.812;2022-11-15T12:14:03;13.60;99.90
72206;DHT22;60111;48.286;7.812;2022-11-15T12:16:37;13.60;99.90
72206;DHT22;60111;48.286;7.812;2022-11-15T12:19:11;13.70;99.90
72206;DHT22;60111;48.286;7.812;2022-11-15T12:22:04;13.80;99.90
72206;DHT22;60111;48.286;7.812;2022-11-15T12:28:03;14.00;99.90
72206;DHT22;60111;48.286;7.812;2022-11-15T12:31:30;13.90;99.90
72206;DHT22;60111;48.286;7.812;2022-11-15T12:33:38;14.00;99.90
72206;DHT22;60111;48.286;7.812;2022-11-15T12:39:10;13.80;99.90
72206;DHT22;60111;48.286;7.812;2022-11-15T12:41:45;13.80;99.90
72206;DHT22;60111;48.286;7.812;2022-11-15T12:49:45;13.80;99.90
72206;DHT22;60111;48.286;7.812;2022-11-15T12:52:18;13.80;99.90
72206;DHT22;60111;48.286;7.812;2022-11-15T12:54:58;13.90;99.90
72206;DHT22;60111;48.286;7.812;2022-11-15T12:57:29;13.90;99.90
72206;DHT22;60111;48.286;7.812;2022-11-15T13:02:46;13.80;99.90
72206;DHT22;60111;48.286;7.812;2022-11-15T13:08:34;13.80;99.90
72206;DHT22;60111;48.286;7.812;2022-11-15T13:10:49;13.70;99.90
72206;DHT22;60111;48.286;7.812;2022-11-15T13:13:57;13.70;99.90
72206;DHT22;60111;48.286;7.812;2022-11-15T13:16:03;13.70;99.90
72206;DHT22;60111;48.286;7.812;2022-11-15T13:18:39;13.70;99.90
72206;DHT22;60111;48.286;7.812;2022-11-15T13:21:21;13.70;99.90
72206;DHT22;60111;48.286;7.812;2022-11-15T13:24:13;13.70;99.90
72206;DHT22;60111;48.286;7.812;2022-11-15T13:26:46;13.70;99.90
72206;DHT22;60111;48.286;7.812;2022-11-15T13:29:20;13.60;99.90
72206;DHT22;60111;48.286;7.812;2022-11-15T13:31:52;13.60;99.90
72206;DHT22;60111;48.286;7.812;2022-11-15T13:34:29;13.50;99.90
72206;DHT22;60111;48.286;7.812;2022-11-15T13:37:08;13.40;99.90
72206;DHT22;60111;48.286;7.812;2022-11-15T13:39:38;13.40;99.90
72206;DHT22;60111;48.286;7.812;2022-11-15T13:42:15;13.40;99.90
72206;DHT22;60111;48.286;7.812;2022-11-15T13:44:59;13.40;99.90
72206;DHT22;60111;48.286;7.812;2022-11-15T13:47:32;13.40;99.90
72206;DHT22;60111;48.286;7.812;2022-11-15T13:50:05;13.30;99.90
72206;DHT22;60111;48.286;7.812;2022-11-15T13:52:40;13.30;99.90
72206;DHT22;60111;48.286;7.812;2022-11-15T13:55:17;13.30;99.90
72206;DHT22;60111;48.286;7.812;2022-11-15T13:58:02;13.30;99.90
72206;DHT22;60111;48.286;7.812;2022-11-15T14:00:41;13.30;99.90
72206;DHT22;60111;48.286;7.812;2022-11-15T14:03:26;13.20;99.90
72206;DHT22;60111;48.286;7.812;2022-11-15T14:06:11;13.20;99.90
72206;DHT22;60111;48.286;7.812;2022-11-15T14:11:53;13.10;99.90
72206;DHT22;60111;48.286;7.812;2022-11-15T14:14:28;13.10;99.90
72206;DHT22;60111;48.286;7.812;2022-11-15T14:17:01;13.10;99.90
72206;DHT22;60111;48.286;7.812;2022-11-15T14:19:36;13.10;99.90
72206;DHT22;60111;48.286;7.812;2022-11-15T14:22:26;13.10;99.90
72206;DHT22;60111;48.286;7.812;2022-11-15T14:25:18;13.10;99.90
72206;DHT22;60111;48.286;7.812;2022-11-15T14:28:14;13.10;99.90
72206;DHT22;60111;48.286;7.812;2022-11-15T14:30:46;13.10;99.90
72206;DHT22;60111;48.286;7.812;2022-11-15T14:33:27;13.10;99.90
72206;DHT22;60111;48.286;7.812;2022-11-15T14:38:45;13.20;99.90
72206;DHT22;60111;48.286;7.812;2022-11-15T14:43:53;13.20;99.90
72206;DHT22;60111;48.286;7.812;2022-11-15T14:46:26;13.20;99.90
72206;DHT22;60111;48.286;7.812;2022-11-15T14:48:58;13.10;99.90
72206;DHT22;60111;48.286;7.812;2022-11-15T14:51:31;13.10;99.90
72206;DHT22;60111;48.286;7.812;2022-11-15T14:54:05;13.10;99.90
72206;DHT22;60111;48.286;7.812;2022-11-15T14:56:37;13.10;99.90
72206;DHT22;60111;48.286;7.812;2022-11-15T14:59:10;13.00;99.90
72206;DHT22;60111;48.286;7.812;2022-11-15T15:01:42;13.00;99.90
72206;DHT22;60111;48.286;7.812;2022-11-15T15:04:15;13.00;99.90
72206;DHT22;60111;48.286;7.812;2022-11-15T15:06:47;13.00;99.90
72206;DHT22;60111;48.286;7.812;2022-11-15T15:09:20;13.00;99.90
72206;DHT22;60111;48.286;7.812;2022-11-15T15:11:52;13.00;99.90
72206;DHT22;60111;48.286;7.812;2022-11-15T15:14:26;13.00;99.90
72206;DHT22;60111;48.286;7.812;2022-11-15T15:16:58;12.90;99.90
72206;DHT22;60111;48.286;7.812;2022-11-15T15:19:31;12.90;99.90
72206;DHT22;60111;48.286;7.812;2022-11-15T15:22:04;12.90;99.90
72206;DHT22;60111;48.286;7.812;2022-11-15T15:24:37;12.90;99.90
72206;DHT22;60111;48.286;7.812;2022-11-15T15:27:11;12.80;99.90
72206;DHT22;60111;48.286;7.812;2022-11-15T15:29:43;12.80;99.90
72206;DHT22;60111;48.286;7.812;2022-11-15T15:32:16;12.80;99.90
72206;DHT22;60111;48.286;7.812;2022-11-15T15:34:48;12.80;99.90
72206;DHT22;60111;48.286;7.812;2022-11-15T15:39:57;12.70;99.90
72206;DHT22;60111;48.286;7.812;2022-11-15T15:42:30;12.70;99.90
72206;DHT22;60111;48.286;7.812;2022-11-15T15:45:03;12.60;99.90
72206;DHT22;60111;48.286;7.812;2022-11-15T15:47:36;12.60;99.90
72206;DHT22;60111;48.286;7.812;2022-11-15T15:50:24;12.60;99.90
72206;DHT22;60111;48.286;7.812;2022-11-15T15:52:58;12.60;99.90
72206;DHT22;60111;48.286;7.812;2022-11-15T15:55:32;12.50;99.90
72206;DHT22;60111;48.286;7.812;2022-11-15T15:58:05;12.50;99.90
72206;DHT22;60111;48.286;7.812;2022-11-15T16:00:44;12.50;99.90
72206;DHT22;60111;48.286;7.812;2022-11-15T16:03:13;12.50;99.90
72206;DHT22;60111;48.286;7.812;2022-11-15T16:05:46;12.50;99.90
72206;DHT22;60111;48.286;7.812;2022-11-15T16:08:23;12.40;99.90
72206;DHT22;60111;48.286;7.812;2022-11-15T16:10:58;12.40;99.90
72206;DHT22;60111;48.286;7.812;2022-11-15T16:13:30;12.40;99.90
72206;DHT22;60111;48.286;7.812;2022-11-15T16:16:04;12.40;99.90
72206;DHT22;60111;48.286;7.812;2022-11-15T16:18:37;12.30;99.90
72206;DHT22;60111;48.286;7.812;2022-11-15T16:21:09;12.40;99.90
72206;DHT22;60111;48.286;7.812;2022-11-15T16:23:43;12.40;99.90
72206;DHT22;60111;48.286;7.812;2022-11-15T16:26:21;12.30;99.90
72206;DHT22;60111;48.286;7.812;2022-11-15T16:28:54;12.40;99.90
72206;DHT22;60111;48.286;7.812;2022-11-15T16:31:26;12.40;99.90
72206;DHT22;60111;48.286;7.812;2022-11-15T16:33:59;12.40;99.90
72206;DHT22;60111;48.286;7.812;2022-11-15T16:36:33;12.30;99.90
72206;DHT22;60111;48.286;7.812;2022-11-15T16:39:08;12.30;99.90
72206;DHT22;60111;48.286;7.812;2022-11-15T16:41:40;12.30;99.90
72206;DHT22;60111;48.286;7.812;2022-11-15T16:44:15;12.30;99.90
72206;DHT22;60111;48.286;7.812;2022-11-15T16:46:48;12.20;99.90
72206;DHT22;60111;48.286;7.812;2022-11-15T16:49:22;12.20;99.90
72206;DHT22;60111;48.286;7.812;2022-11-15T16:51:55;12.20;99.90
72206;DHT22;60111;48.286;7.812;2022-11-15T16:54:28;12.20;99.90
72206;DHT22;60111;48.286;7.812;2022-11-15T16:57:01;12.20;99.90
72206;DHT22;60111;48.286;7.812;2022-11-15T16:59:33;12.20;99.90
72206;DHT22;60111;48.286;7.812;2022-11-15T17:02:10;12.20;99.90
72206;DHT22;60111;48.286;7.812;2022-11-15T17:04:41;12.20;99.90
72206;DHT22;60111;48.286;7.812;2022-11-15T17:07:14;12.20;99.90
72206;DHT22;60111;48.286;7.812;2022-11-15T17:09:46;12.20;99.90
72206;DHT22;60111;48.286;7.812;2022-11-15T17:12:19;12.10;99.90
72206;DHT22;60111;48.286;7.812;2022-11-15T17:14:51;12.10;99.90
72206;DHT22;60111;48.286;7.812;2022-11-15T17:17:24;12.10;99.90
72206;DHT22;60111;48.286;7.812;2022-11-15T17:19:57;12.10;99.90
72206;DHT22;60111;48.286;7.812;2022-11-15T17:22:30;12.10;99.90
72206;DHT22;60111;48.286;7.812;2022-11-15T17:25:03;12.10;99.90
72206;DHT22;60111;48.286;7.812;2022-11-15T17:27:36;12.10;99.90
72206;DHT22;60111;48.286;7.812;2022-11-15T17:30:16;12.10;99.90
72206;DHT22;60111;48.286;7.812;2022-11-15T17:32:45;12.10;99.90
72206;DHT22;60111;48.286;7.812;2022-11-15T17:35:18;12.10;99.90
72206;DHT22;60111;48.286;7.812;2022-11-15T17:37:51;12.10;99.90
72206;DHT22;60111;48.286;7.812;2022-11-15T17:40:23;12.10;99.90
72206;DHT22;60111;48.286;7.812;2022-11-15T17:42:56;12.00;99.90
72206;DHT22;60111;48.286;7.812;2022-11-15T17:45:28;12.00;99.90
72206;DHT22;60111;48.286;7.812;2022-11-15T17:48:01;12.00;99.90
72206;DHT22;60111;48.286;7.812;2022-11-15T17:50:34;12.00;99.90
72206;DHT22;60111;48.286;7.812;2022-11-15T17:53:06;12.00;99.90
72206;DHT22;60111;48.286;7.812;2022-11-15T17:55:40;12.00;99.90
72206;DHT22;60111;48.286;7.812;2022-11-15T17:58:12;12.00;99.90
72206;DHT22;60111;48.286;7.812;2022-11-15T18:00:47;12.00;99.90
72206;DHT22;60111;48.286;7.812;2022-11-15T18:03:20;11.90;99.90
72206;DHT22;60111;48.286;7.812;2022-11-15T18:05:52;12.00;99.90
72206;DHT22;60111;48.286;7.812;2022-11-15T18:08:26;12.00;99.90